createdAt,value
2018-08-11T00:01:19.034Z,1.67
2018-08-11T00:06:22.163Z,1.80
2018-08-11T00:11:25.208Z,2.50
2018-08-11T00:16:28.250Z,1.93
2018-08-11T00:21:31.505Z,2.43
2018-08-11T00:26:34.545Z,1.60
2018-08-11T00:31:37.695Z,1.37
2018-08-11T00:36:40.732Z,2.10
2018-08-11T00:41:43.760Z,2.30
2018-08-11T00:46:46.786Z,1.60
2018-08-11T00:51:49.893Z,1.70
2018-08-11T00:56:52.910Z,1.50
2018-08-11T01:01:55.978Z,1.43
2018-08-11T01:06:59.212Z,1.60
2018-08-11T01:12:02.256Z,1.60
2018-08-11T01:17:05.288Z,1.70
2018-08-11T01:22:08.442Z,1.80
2018-08-11T01:27:11.450Z,1.60
2018-08-11T01:32:14.509Z,1.90
2018-08-11T01:37:17.738Z,1.90
2018-08-11T01:42:20.755Z,1.60
2018-08-11T01:47:23.831Z,1.60
2018-08-11T01:52:26.872Z,1.70
2018-08-11T01:57:29.942Z,1.73
2018-08-11T02:02:32.958Z,1.90
2018-08-11T02:07:36.168Z,1.97
2018-08-11T02:12:39.261Z,2.20
2018-08-11T02:17:42.276Z,1.93
2018-08-11T02:22:46.092Z,2.10
2018-08-11T02:27:49.107Z,2.33
2018-08-11T02:32:52.170Z,2.40
2018-08-11T02:37:55.212Z,2.57
2018-08-11T02:42:59.222Z,2.17
2018-08-11T02:48:02.513Z,2.70
2018-08-11T02:53:05.869Z,2.40
2018-08-11T02:58:08.864Z,2.77
2018-08-11T03:03:14.761Z,2.70
2018-08-11T03:08:17.929Z,2.67
2018-08-11T03:13:24.729Z,2.53
2018-08-11T03:18:27.811Z,2.73
2018-08-11T03:23:30.843Z,2.50
2018-08-11T03:28:33.908Z,3.10
2018-08-11T03:33:36.928Z,2.40
2018-08-11T03:38:39.932Z,3.10
2018-08-11T03:43:42.946Z,2.77
2018-08-11T03:48:45.987Z,2.60
2018-08-11T03:53:49.015Z,2.27
2018-08-11T03:58:52.028Z,2.40
2018-08-11T04:03:55.181Z,2.43
2018-08-11T04:08:58.171Z,2.40
2018-08-11T04:14:01.194Z,2.40
2018-08-11T04:19:04.217Z,2.30
2018-08-11T04:24:07.569Z,2.10
2018-08-11T04:29:10.580Z,2.30
2018-08-11T04:34:13.598Z,2.60
2018-08-11T04:39:16.641Z,2.77
2018-08-11T04:44:19.663Z,2.20
2018-08-11T04:49:22.690Z,1.97
2018-08-11T04:54:25.688Z,2.00
2018-08-11T04:59:28.904Z,1.97
2018-08-11T05:04:31.919Z,2.20
2018-08-11T05:09:34.939Z,2.00
2018-08-11T05:14:38.108Z,2.13
2018-08-11T05:19:41.142Z,2.00
2018-08-11T05:24:44.140Z,2.13
2018-08-11T05:29:47.212Z,1.73
2018-08-11T05:34:50.291Z,2.00
2018-08-11T05:39:53.315Z,1.63
2018-08-11T05:44:56.414Z,2.03
2018-08-11T05:49:59.475Z,2.50
2018-08-11T05:55:02.556Z,2.40
2018-08-11T06:00:07.508Z,2.27
2018-08-11T06:05:10.540Z,1.80
2018-08-11T06:10:13.575Z,1.70
2018-08-11T06:15:16.679Z,2.50
2018-08-11T06:20:19.768Z,2.17
2018-08-11T06:25:22.891Z,2.10
2018-08-11T06:30:26.001Z,2.17
2018-08-11T06:35:29.027Z,2.27
2018-08-11T06:40:32.072Z,2.33
2018-08-11T06:45:35.240Z,2.20
2018-08-11T06:50:38.255Z,2.53
2018-08-11T06:55:41.941Z,2.43
2018-08-11T07:00:45.090Z,2.00
2018-08-11T07:05:48.107Z,2.10
2018-08-11T07:10:51.140Z,2.03
2018-08-11T07:15:54.271Z,2.30
2018-08-11T07:20:57.304Z,2.40
2018-08-11T07:26:00.395Z,2.37
2018-08-11T07:31:03.466Z,1.80
2018-08-11T07:36:07.020Z,2.30
2018-08-11T07:41:10.015Z,1.97
2018-08-11T07:46:13.088Z,2.17
2018-08-11T07:51:16.119Z,1.90
2018-08-11T07:56:19.245Z,2.00
2018-08-11T08:01:22.354Z,2.57
2018-08-11T08:06:25.350Z,1.67
2018-08-11T08:11:28.365Z,1.20
2018-08-11T08:16:31.563Z,1.43
2018-08-11T08:21:34.725Z,1.10
2018-08-11T08:26:37.853Z,1.40
2018-08-11T08:31:41.430Z,1.57
2018-08-11T08:36:45.562Z,1.20
2018-08-11T08:41:48.773Z,1.20
2018-08-11T08:46:51.812Z,1.00
2018-08-11T08:51:55.212Z,0.90
2018-08-11T08:56:59.050Z,1.10
2018-08-11T09:02:02.105Z,1.00
2018-08-11T09:07:05.152Z,1.20
2018-08-11T09:12:08.157Z,1.10
2018-08-11T09:17:11.268Z,1.13
2018-08-11T09:22:14.394Z,1.43
2018-08-11T09:27:17.440Z,1.27
2018-08-11T09:32:20.547Z,1.30
2018-08-11T09:37:23.596Z,1.67
2018-08-11T09:42:26.635Z,1.13
2018-08-11T09:47:29.684Z,1.50
2018-08-11T09:52:32.719Z,1.50
2018-08-11T09:57:35.868Z,1.63
2018-08-11T10:02:38.911Z,1.30
2018-08-11T10:07:42.012Z,1.33
2018-08-11T10:12:45.223Z,1.50
2018-08-11T10:17:48.518Z,1.20
2018-08-11T10:22:52.042Z,1.53
2018-08-11T10:27:55.443Z,1.60
2018-08-11T10:32:59.104Z,1.73
2018-08-11T10:38:02.951Z,1.97
2018-08-11T10:43:06.094Z,1.60
2018-08-11T10:48:09.167Z,0.93
2018-08-11T10:53:12.303Z,1.10
2018-08-11T10:58:15.516Z,1.13
2018-08-11T11:03:18.581Z,1.20
2018-08-11T11:08:21.643Z,1.20
2018-08-11T11:13:24.642Z,0.90
2018-08-11T11:18:27.689Z,0.70
2018-08-11T11:23:30.720Z,0.90
2018-08-11T11:28:33.751Z,0.60
2018-08-11T11:33:36.778Z,0.63
2018-08-11T11:38:39.815Z,0.80
2018-08-11T11:43:42.839Z,0.60
2018-08-11T11:48:45.876Z,0.70
2018-08-11T11:53:48.902Z,0.77
2018-08-11T11:58:52.024Z,0.80
2018-08-11T12:03:55.151Z,0.93
2018-08-11T12:08:58.194Z,1.00
2018-08-11T12:14:01.222Z,0.90
2018-08-11T12:19:04.359Z,0.80
2018-08-11T12:24:07.462Z,1.00
2018-08-11T12:29:10.666Z,0.90
2018-08-11T12:34:13.703Z,1.20
2018-08-11T12:39:16.716Z,0.80
2018-08-11T12:44:19.752Z,0.90
2018-08-11T12:49:22.767Z,0.83
2018-08-11T12:54:26.166Z,0.93
2018-08-11T12:59:29.582Z,0.80
2018-08-11T13:04:32.799Z,0.93
2018-08-11T13:09:35.836Z,0.83
2018-08-11T13:14:38.885Z,1.60
2018-08-11T13:19:41.902Z,0.90
2018-08-11T13:24:44.917Z,1.07
2018-08-11T13:29:48.004Z,0.90
2018-08-11T13:34:51.032Z,1.00
2018-08-11T13:39:54.102Z,1.03
2018-08-11T13:44:57.114Z,1.07
2018-08-11T13:50:00.128Z,1.00
2018-08-11T13:55:03.209Z,1.10
2018-08-11T14:00:07.323Z,1.30
2018-08-11T14:05:10.454Z,0.80
2018-08-11T14:10:13.564Z,1.00
2018-08-11T14:15:16.615Z,1.43
2018-08-11T14:20:19.653Z,0.97
2018-08-11T14:25:22.682Z,1.10
2018-08-11T14:30:25.752Z,1.53
2018-08-11T14:35:28.983Z,1.50
2018-08-11T14:40:31.996Z,2.60
2018-08-11T14:45:35.083Z,1.37
2018-08-11T14:50:38.252Z,1.30
2018-08-11T14:55:41.286Z,1.50
2018-08-11T15:00:44.303Z,1.20
2018-08-11T15:05:47.415Z,1.27
2018-08-11T15:10:50.772Z,1.40
2018-08-11T15:15:53.984Z,1.20
2018-08-11T15:20:57.031Z,1.40
2018-08-11T15:26:00.061Z,1.97
2018-08-11T15:31:03.130Z,1.10
2018-08-11T15:36:06.270Z,1.30
2018-08-11T15:41:09.363Z,1.57
2018-08-11T15:46:12.471Z,1.43
2018-08-11T15:51:15.515Z,0.77
2018-08-11T15:56:18.655Z,1.17
2018-08-11T16:01:21.714Z,1.20
2018-08-11T16:06:24.808Z,1.23
2018-08-11T16:11:27.826Z,1.00
2018-08-11T16:16:30.849Z,1.60
2018-08-11T16:21:33.878Z,1.30
2018-08-11T16:26:36.910Z,0.97
2018-08-11T16:31:39.927Z,1.20
2018-08-11T16:36:43.001Z,1.13
2018-08-11T16:41:46.003Z,1.47
2018-08-11T16:46:49.032Z,1.40
2018-08-11T16:51:52.052Z,1.57
2018-08-11T16:56:55.072Z,1.23
2018-08-11T17:01:58.119Z,1.10
2018-08-11T17:07:01.207Z,1.50
2018-08-11T17:12:04.231Z,1.80
2018-08-11T17:17:07.291Z,1.07
2018-08-11T17:22:10.319Z,1.73
2018-08-11T17:27:13.409Z,1.30
2018-08-11T17:32:16.542Z,1.07
2018-08-11T17:37:19.756Z,1.70
2018-08-11T17:42:22.845Z,1.43
2018-08-11T17:47:25.890Z,1.10
2018-08-11T17:52:28.922Z,1.20
2018-08-11T17:57:31.982Z,1.27
2018-08-11T18:02:35.038Z,1.20
2018-08-11T18:07:38.057Z,1.10
2018-08-11T18:12:41.105Z,1.30
2018-08-11T18:17:44.160Z,1.23
2018-08-11T18:22:47.184Z,2.00
2018-08-11T18:27:50.229Z,1.20
2018-08-11T18:32:53.415Z,1.20
2018-08-11T18:37:56.444Z,1.10
2018-08-11T18:42:59.497Z,1.20
2018-08-11T18:48:02.514Z,1.50
2018-08-11T18:53:05.718Z,1.10
2018-08-11T18:58:08.773Z,0.90
2018-08-11T19:03:11.894Z,1.00
2018-08-11T19:08:15.257Z,0.77
2018-08-11T19:13:18.304Z,0.80
2018-08-11T19:18:22.110Z,0.80
2018-08-11T19:23:27.360Z,0.70
2018-08-11T19:28:31.796Z,0.90
2018-08-11T19:33:36.905Z,0.70
2018-08-11T19:38:42.164Z,1.17
2018-08-11T19:43:46.227Z,0.70
2018-08-11T19:48:50.772Z,1.13
2018-08-11T19:53:53.934Z,0.70
2018-08-11T19:58:57.516Z,0.70
2018-08-11T20:04:00.521Z,0.60
2018-08-11T20:09:03.576Z,0.93
2018-08-11T20:14:06.608Z,1.00
2018-08-11T20:19:10.679Z,0.90
2018-08-11T20:24:16.547Z,1.20
2018-08-11T20:29:19.598Z,0.60
2018-08-11T20:34:22.628Z,0.80
2018-08-11T20:39:25.724Z,0.73
2018-08-11T20:44:28.960Z,0.70
2018-08-11T20:49:32.223Z,0.87
2018-08-11T20:54:35.384Z,0.80
2018-08-11T20:59:38.463Z,0.70
2018-08-11T21:04:41.503Z,0.70
2018-08-11T21:09:44.563Z,0.80
2018-08-11T21:14:47.588Z,1.00
2018-08-11T21:19:50.632Z,0.90
2018-08-11T21:24:53.682Z,0.83
2018-08-11T21:29:56.718Z,0.90
2018-08-11T21:34:59.828Z,1.23
2018-08-11T21:40:02.944Z,1.03
2018-08-11T21:45:06.176Z,1.00
2018-08-11T21:50:09.632Z,1.00
2018-08-11T21:55:13.472Z,0.90
2018-08-11T22:00:23.270Z,0.70
2018-08-11T22:05:26.835Z,0.93
2018-08-11T22:10:30.229Z,0.90
2018-08-11T22:15:33.272Z,1.00
2018-08-11T22:20:36.295Z,1.07
2018-08-11T22:25:39.352Z,1.10
2018-08-11T22:30:42.386Z,0.87
2018-08-11T22:35:45.460Z,0.70
2018-08-11T22:40:48.465Z,0.80
2018-08-11T22:45:51.541Z,0.80
2018-08-11T22:50:54.666Z,0.80
2018-08-11T22:55:57.759Z,1.00
2018-08-11T23:01:00.803Z,0.90
2018-08-11T23:06:03.979Z,0.87
2018-08-11T23:11:07.153Z,0.80
2018-08-11T23:16:10.327Z,1.20
2018-08-11T23:21:13.360Z,0.90
2018-08-11T23:26:16.502Z,0.80
2018-08-11T23:31:19.563Z,1.10
2018-08-11T23:36:22.623Z,0.80
2018-08-11T23:41:25.655Z,1.00
2018-08-11T23:46:28.730Z,1.30
2018-08-11T23:51:31.830Z,1.10
2018-08-11T23:56:34.872Z,0.97
